Time;durP1;ratioP1;P1;durP2;ratioP2;P2;SDS_P1;SDS_P2;PMS_P1;PMS_P2;Temp;Humidity;BMP_temperature;BMP_pressure;BME280_temperature;BME280_humidity;BME280_pressure;Samples;Min_cycle;Max_cycle;Signal;HPM_P1;HPM_P2
2023/09/29 00:00:48;;;;;;;8.45;4.85;;;;;;;14.64;100.00;97986.91;5153971;27;20029;-73
2023/09/29 00:03:15;;;;;;;13.05;5.13;;;;;;;14.55;100.00;97979.47;5152594;27;20476;-72
2023/09/29 00:05:42;;;;;;;14.68;5.40;;;;;;;14.52;100.00;97982.38;5152797;27;20010;-72
2023/09/29 00:08:09;;;;;;;14.50;4.78;;;;;;;14.46;100.00;97981.94;5135100;27;20019;-73
2023/09/29 00:10:39;;;;;;;18.02;5.80;;;;;;;14.42;100.00;97978.63;5139546;27;20023;-73
2023/09/29 00:13:05;;;;;;;11.05;4.82;;;;;;;14.32;100.00;97979.34;5149282;27;20114;-73
2023/09/29 00:15:33;;;;;;;10.13;5.18;;;;;;;14.19;100.00;97973.97;5135066;27;20026;-72
2023/09/29 00:18:01;;;;;;;12.40;5.10;;;;;;;14.20;100.00;97974.81;5144769;27;20036;-73
2023/09/29 00:20:26;;;;;;;11.85;5.65;;;;;;;14.13;100.00;97979.75;5131288;27;20031;-73
2023/09/29 00:22:56;;;;;;;10.38;4.78;;;;;;;14.04;100.00;97980.41;5132954;27;20034;-72
2023/09/29 00:25:23;;;;;;;13.60;5.03;;;;;;;13.96;100.00;97977.38;5150845;27;20069;-72
2023/09/29 00:27:50;;;;;;;12.13;5.38;;;;;;;13.88;100.00;97975.22;5153578;27;20029;-73
2023/09/29 00:30:16;;;;;;;16.48;5.22;;;;;;;13.87;100.00;97973.47;5152521;27;20078;-73
2023/09/29 00:32:45;;;;;;;10.65;4.85;;;;;;;13.84;100.00;97976.38;5105786;27;20034;-72
2023/09/29 00:35:11;;;;;;;10.07;4.68;;;;;;;13.77;100.00;97975.09;5131146;27;20238;-72
2023/09/29 00:37:37;;;;;;;11.13;5.55;;;;;;;13.73;100.00;97970.00;5131081;27;20058;-72
2023/09/29 00:40:11;;;;;;;13.32;5.30;;;;;;;13.74;100.00;97986.06;5132655;27;20031;-73
2023/09/29 00:42:37;;;;;;;13.43;5.78;;;;;;;13.67;100.00;97978.50;5151004;27;20119;-73
2023/09/29 00:45:05;;;;;;;14.63;5.40;;;;;;;13.64;100.00;97973.31;5153345;27;20084;-72
2023/09/29 00:47:32;;;;;;;10.65;5.43;;;;;;;13.65;100.00;97981.31;5152625;27;20027;-73
2023/09/29 00:49:58;;;;;;;8.23;5.43;;;;;;;13.60;100.00;97971.81;5151970;27;20026;-73
2023/09/29 00:52:24;;;;;;;13.75;5.15;;;;;;;13.48;100.00;97974.34;5151613;27;20026;-72
2023/09/29 00:54:51;;;;;;;10.80;5.35;;;;;;;13.43;100.00;97976.50;5134513;27;20072;-72
2023/09/29 00:57:17;;;;;;;8.18;5.28;;;;;;;13.32;100.00;97973.63;5151701;27;20041;-72
2023/09/29 00:59:46;;;;;;;16.23;6.40;;;;;;;13.36;100.00;97985.06;5152737;27;21171;-73
2023/09/29 01:02:14;;;;;;;9.05;5.35;;;;;;;13.31;100.00;97979.13;5152964;27;20034;-74
2023/09/29 01:04:41;;;;;;;10.15;5.50;;;;;;;13.34;100.00;97993.22;5132086;27;20027;-73
2023/09/29 01:07:07;;;;;;;10.43;4.82;;;;;;;13.39;100.00;97993.78;5151204;27;20033;-73
2023/09/29 01:09:33;;;;;;;8.48;4.95;;;;;;;13.36;100.00;97982.38;5151474;27;20023;-73
2023/09/29 01:12:00;;;;;;;14.70;6.43;;;;;;;13.30;100.00;97993.50;5151162;27;20478;-72
2023/09/29 01:14:25;;;;;;;14.68;5.45;;;;;;;13.27;100.00;97994.59;5151432;27;20034;-72
2023/09/29 01:16:51;;;;;;;13.32;5.85;;;;;;;13.27;100.00;97994.59;5151196;27;20029;-73
2023/09/29 01:19:18;;;;;;;20.80;6.03;;;;;;;13.28;100.00;97992.75;5151161;27;20050;-73
2023/09/29 01:21:46;;;;;;;13.38;6.07;;;;;;;13.29;100.00;97989.97;5150183;27;20026;-73
2023/09/29 01:24:13;;;;;;;12.35;5.53;;;;;;;13.31;100.00;97990.75;5117110;27;20439;-73
2023/09/29 01:26:39;;;;;;;9.23;5.10;;;;;;;13.33;100.00;97993.31;5151368;27;20030;-73
2023/09/29 01:29:05;;;;;;;6.22;4.40;;;;;;;13.34;100.00;98001.28;5150974;27;20023;-73
2023/09/29 01:31:33;;;;;;;15.57;5.03;;;;;;;13.36;100.00;97999.34;5151126;27;20019;-73
2023/09/29 01:33:59;;;;;;;17.45;4.80;;;;;;;13.41;100.00;97991.84;5133880;27;20018;-73
2023/09/29 01:36:24;;;;;;;22.00;5.22;;;;;;;13.46;100.00;97997.78;5133679;27;20031;-73
2023/09/29 01:38:50;;;;;;;12.57;5.15;;;;;;;13.46;100.00;97997.78;5143684;27;20515;-72
2023/09/29 01:41:16;;;;;;;6.95;4.70;;;;;;;13.47;100.00;97998.66;5152174;27;20018;-73
2023/09/29 01:43:41;;;;;;;11.35;4.68;;;;;;;13.53;100.00;98004.47;5150780;27;20065;-73
2023/09/29 01:46:11;;;;;;;19.80;6.10;;;;;;;13.55;100.00;97999.88;5152034;27;20015;-73
2023/09/29 01:48:36;;;;;;;13.30;5.32;;;;;;;13.60;100.00;98001.41;5150744;27;20026;-74
2023/09/29 01:51:02;;;;;;;12.60;4.97;;;;;;;13.61;100.00;98006.66;5150792;27;20607;-73
2023/09/29 01:53:30;;;;;;;19.63;5.70;;;;;;;13.61;100.00;98008.47;5150889;27;20050;-72
2023/09/29 01:55:56;;;;;;;14.65;5.53;;;;;;;13.66;100.00;98007.19;5151016;27;20027;-72
2023/09/29 01:58:23;;;;;;;10.63;5.45;;;;;;;13.61;100.00;97997.72;5124651;27;20023;-72
2023/09/29 02:00:49;;;;;;;9.13;4.70;;;;;;;13.57;100.00;97997.06;5155478;27;20029;-73
2023/09/29 02:03:16;;;;;;;8.77;4.95;;;;;;;13.62;100.00;98004.84;5156253;27;20026;-73
2023/09/29 02:05:42;;;;;;;8.52;5.10;;;;;;;13.57;100.00;98008.69;5155135;27;20071;-72
2023/09/29 02:08:09;;;;;;;11.48;5.10;;;;;;;13.55;100.00;98004.38;5155167;27;20033;-72
2023/09/29 02:10:36;;;;;;;11.52;5.05;;;;;;;13.54;100.00;98014.25;5154769;27;20485;-72
2023/09/29 02:13:04;;;;;;;9.05;5.72;;;;;;;13.47;100.00;98012.94;5154983;27;20105;-72
2023/09/29 02:15:31;;;;;;;9.10;5.00;;;;;;;13.39;100.00;98012.59;5137562;27;20030;-72
2023/09/29 02:17:57;;;;;;;21.52;6.82;;;;;;;13.25;100.00;98011.78;5156188;27;20026;-72
2023/09/29 02:20:33;;;;;;;19.73;8.65;;;;;;;12.98;100.00;98003.66;5137259;27;20046;-72
2023/09/29 02:22:59;;;;;;;24.13;10.48;;;;;;;12.93;100.00;98021.88;5148094;27;20058;-72
2023/09/29 02:25:29;;;;;;;22.80;10.77;;;;;;;12.76;100.00;98014.91;5133689;27;20626;-73
2023/09/29 02:27:56;;;;;;;19.83;9.20;;;;;;;12.70;100.00;98015.28;5117312;27;20055;-73
2023/09/29 02:30:24;;;;;;;16.08;7.45;;;;;;;12.71;100.00;98014.31;5152334;27;20454;-73
2023/09/29 02:32:52;;;;;;;19.67;8.30;;;;;;;12.68;100.00;98021.69;5155930;27;20030;-74
2023/09/29 02:35:18;;;;;;;22.20;7.95;;;;;;;12.68;100.00;98022.56;5154607;27;20034;-73
2023/09/29 02:37:44;;;;;;;19.20;7.43;;;;;;;12.61;100.00;98012.31;5154677;27;20034;-73
2023/09/29 02:40:15;;;;;;;14.52;6.80;;;;;;;12.62;100.00;98022.94;5154525;27;20105;-73
2023/09/29 02:42:41;;;;;;;22.08;7.65;;;;;;;12.59;100.00;98022.25;5154544;27;20053;-73
2023/09/29 02:45:08;;;;;;;19.23;7.47;;;;;;;12.48;100.00;98026.50;5147108;27;20372;-74
2023/09/29 02:47:35;;;;;;;11.48;7.13;;;;;;;12.49;100.00;98028.19;5133346;27;20481;-73
2023/09/29 02:50:01;;;;;;;14.77;7.50;;;;;;;12.52;100.00;98029.00;5141240;27;20018;-73
2023/09/29 02:52:29;;;;;;;15.95;7.78;;;;;;;12.46;100.00;98023.03;5153926;27;20026;-73
2023/09/29 02:54:55;;;;;;;19.67;8.02;;;;;;;12.43;100.00;98023.22;5141872;27;20394;-73
2023/09/29 02:57:22;;;;;;;11.25;6.85;;;;;;;12.37;100.00;98028.97;5133229;27;20077;-73
2023/09/29 02:59:48;;;;;;;14.18;7.50;;;;;;;12.38;100.00;98036.06;5153194;27;20073;-72
2023/09/29 03:02:13;;;;;;;19.33;8.40;;;;;;;12.32;100.00;98028.38;5154037;27;20085;-73
2023/09/29 03:04:39;;;;;;;18.67;7.25;;;;;;;12.28;100.00;98029.53;5154926;27;20034;-72
2023/09/29 03:07:06;;;;;;;15.27;7.35;;;;;;;12.29;100.00;98030.38;5136602;27;20026;-73
2023/09/29 03:09:33;;;;;;;18.70;7.82;;;;;;;12.35;100.00;98028.19;5153714;27;20015;-73
2023/09/29 03:12:03;;;;;;;15.95;7.68;;;;;;;12.44;100.00;98034.81;5154818;27;20498;-72
2023/09/29 03:14:29;;;;;;;20.67;7.85;;;;;;;12.43;100.00;98031.25;5153642;27;20109;-73
2023/09/29 03:16:55;;;;;;;15.40;6.63;;;;;;;12.48;100.00;98031.00;5153604;27;20030;-73
2023/09/29 03:19:21;;;;;;;18.60;7.15;;;;;;;12.42;100.00;98024.19;5153457;27;20127;-73
2023/09/29 03:21:48;;;;;;;16.30;7.45;;;;;;;12.39;100.00;98031.56;5153326;27;20227;-73
2023/09/29 03:24:14;;;;;;;16.15;7.63;;;;;;;12.40;100.00;98030.59;5153421;27;20458;-73
2023/09/29 03:26:39;;;;;;;13.90;6.18;;;;;;;12.42;100.00;98037.59;5135534;27;20058;-73
2023/09/29 03:29:05;;;;;;;14.07;7.13;;;;;;;12.36;100.00;98021.88;5154646;27;20029;-73
2023/09/29 03:31:30;;;;;;;23.27;9.15;;;;;;;12.28;100.00;98008.06;5154557;27;20022;-76
2023/09/29 03:33:56;;;;;;;41.35;13.88;;;;;;;12.32;100.00;98023.03;5153248;27;20037;-73
2023/09/29 03:36:22;;;;;;;31.42;13.40;;;;;;;12.31;100.00;98028.47;5128219;27;20522;-74
2023/09/29 03:38:48;;;;;;;57.55;17.95;;;;;;;12.34;100.00;98039.88;5130744;27;20426;-73
2023/09/29 03:41:13;;;;;;;25.05;9.57;;;;;;;12.28;100.00;98040.25;5142506;27;20019;-72
2023/09/29 03:43:39;;;;;;;20.83;9.02;;;;;;;12.23;100.00;98028.94;5132401;27;20029;-73
2023/09/29 03:46:06;;;;;;;25.27;8.70;;;;;;;12.20;100.00;98037.19;5150707;27;20448;-74
2023/09/29 03:48:32;;;;;;;16.20;7.88;;;;;;;12.13;100.00;98034.94;5153032;27;20038;-73
2023/09/29 03:50:57;;;;;;;18.75;8.52;;;;;;;12.02;100.00;98032.94;5131284;27;20030;-73
2023/09/29 03:53:28;;;;;;;31.20;8.52;;;;;;;12.03;100.00;98034.63;5152947;27;20371;-72
2023/09/29 03:55:56;;;;;;;34.13;8.10;;;;;;;12.00;100.00;98033.97;5135896;27;20019;-73
2023/09/29 03:58:24;;;;;;;22.60;8.70;;;;;;;11.93;100.00;98038.84;5137040;27;20035;-73
2023/09/29 04:00:49;;;;;;;21.52;9.27;;;;;;;11.89;100.00;98037.28;5153795;27;20026;-73
2023/09/29 04:03:16;;;;;;;18.90;8.18;;;;;;;11.86;100.00;98037.47;5152893;27;20042;-73
2023/09/29 04:05:41;;;;;;;31.33;10.07;;;;;;;11.80;100.00;98043.19;5152479;27;20039;-73
2023/09/29 04:08:08;;;;;;;15.73;8.68;;;;;;;11.89;100.00;98048.00;5135271;27;20034;-74
2023/09/29 04:10:34;;;;;;;24.95;8.85;;;;;;;11.93;100.00;98044.22;5148422;27;20027;-76
2023/09/29 04:12:59;;;;;;;20.42;8.70;;;;;;;11.87;100.00;98045.41;5110572;27;20118;-74
2023/09/29 04:15:27;;;;;;;20.30;8.10;;;;;;;11.82;100.00;98036.78;5131682;27;20100;-74
2023/09/29 04:17:52;;;;;;;25.25;10.18;;;;;;;11.87;100.00;98037.38;5132511;27;20489;-74
2023/09/29 04:20:18;;;;;;;26.60;9.63;;;;;;;11.82;100.00;98042.16;5137558;27;20047;-74
2023/09/29 04:22:43;;;;;;;17.80;8.30;;;;;;;11.83;100.00;98045.69;5140508;27;20027;-76
2023/09/29 04:25:10;;;;;;;25.33;9.18;;;;;;;11.82;100.00;98042.16;5122024;27;20031;-75
2023/09/29 04:27:36;;;;;;;15.35;8.60;;;;;;;11.84;100.00;98042.06;5140040;27;20151;-73
2023/09/29 04:30:05;;;;;;;24.80;9.32;;;;;;;11.92;100.00;98048.69;5149073;27;20026;-72
2023/09/29 04:32:31;;;;;;;25.90;9.35;;;;;;;11.91;100.00;98051.47;5149113;27;20026;-72
2023/09/29 04:34:56;;;;;;;25.73;9.93;;;;;;;11.92;100.00;98048.69;5149110;27;20048;-73
2023/09/29 04:37:22;;;;;;;37.90;9.35;;;;;;;11.92;100.00;98050.50;5150084;27;20029;-73
2023/09/29 04:39:47;;;;;;;22.92;8.43;;;;;;;11.84;100.00;98039.38;5148932;27;20026;-73
2023/09/29 04:42:14;;;;;;;24.98;9.02;;;;;;;11.87;100.00;98060.66;5149136;27;20019;-74
2023/09/29 04:44:40;;;;;;;27.55;11.18;;;;;;;11.83;100.00;98053.75;5126067;27;20476;-73
2023/09/29 04:47:06;;;;;;;26.27;9.57;;;;;;;11.78;100.00;98053.16;5130875;27;20026;-73
2023/09/29 04:49:32;;;;;;;35.22;9.38;;;;;;;11.79;100.00;98053.06;5149778;27;20098;-72
2023/09/29 04:51:57;;;;;;;21.05;8.93;;;;;;;11.78;100.00;98056.66;5149870;27;20159;-73
2023/09/29 04:54:23;;;;;;;27.13;9.52;;;;;;;11.82;100.00;98052.88;5148958;27;20387;-73
2023/09/29 04:56:48;;;;;;;25.40;10.32;;;;;;;11.89;100.00;98061.41;5151489;27;20355;-73
2023/09/29 04:59:14;;;;;;;26.30;9.32;;;;;;;11.92;100.00;98054.06;5134017;27;20025;-73
2023/09/29 05:01:40;;;;;;;17.35;9.15;;;;;;;11.98;100.00;98065.38;5152533;27;20414;-72
2023/09/29 05:04:05;;;;;;;22.95;8.38;;;;;;;12.03;100.00;98061.44;5151457;27;20515;-72
2023/09/29 05:06:31;;;;;;;31.63;9.95;;;;;;;12.07;100.00;98067.50;5138167;27;20098;-73
2023/09/29 05:08:56;;;;;;;26.45;8.88;;;;;;;12.09;100.00;98061.09;5148435;27;20023;-73
2023/09/29 05:11:26;;;;;;;22.80;9.32;;;;;;;12.18;100.00;98065.06;5151432;27;20084;-73
2023/09/29 05:13:53;;;;;;;20.45;9.35;;;;;;;12.30;100.00;98061.63;5151312;27;20410;-73
2023/09/29 05:16:18;;;;;;;23.25;8.25;;;;;;;12.47;100.00;98065.00;5151322;27;20015;-73
2023/09/29 05:18:44;;;;;;;20.50;7.75;;;;;;;12.46;100.00;98059.72;5152353;27;20037;-73
2023/09/29 05:21:11;;;;;;;24.25;9.55;;;;;;;12.52;100.00;98072.75;5151075;27;20029;-73
2023/09/29 05:23:37;;;;;;;20.38;9.38;;;;;;;12.69;100.00;98063.69;5150958;27;20027;-74
2023/09/29 05:26:05;;;;;;;37.90;11.57;;;;;;;12.78;100.00;98060.41;5151080;27;20401;-73
2023/09/29 05:28:31;;;;;;;29.00;9.25;;;;;;;13.08;100.00;98053.16;5151319;27;20027;-74
2023/09/29 05:30:57;;;;;;;30.33;9.02;;;;;;;13.27;100.00;98053.69;5150931;27;20481;-74
2023/09/29 05:33:23;;;;;;;25.65;8.48;;;;;;;13.51;100.00;98054.78;5144195;27;20027;-72
2023/09/29 05:35:49;;;;;;;34.85;9.20;;;;;;;13.80;100.00;98054.69;5131511;27;20510;-73
2023/09/29 05:38:15;;;;;;;22.98;9.27;;;;;;;13.80;100.00;98049.31;5131349;27;20098;-74
2023/09/29 05:40:40;;;;;;;26.63;9.70;;;;;;;13.99;100.00;98052.50;5131435;27;20031;-73
2023/09/29 05:43:09;;;;;;;32.00;9.75;;;;;;;14.12;100.00;98039.91;5148705;27;20022;-72
2023/09/29 05:45:39;;;;;;;24.50;9.98;;;;;;;14.15;100.00;98053.16;5150792;27;20023;-72
2023/09/29 05:48:05;;;;;;;25.83;10.43;;;;;;;14.18;100.00;98062.88;5150871;27;20075;-73
2023/09/29 05:50:30;;;;;;;23.17;8.88;;;;;;;14.10;100.00;98055.31;5150929;27;20029;-73
2023/09/29 05:52:57;;;;;;;20.08;8.73;;;;;;;14.16;100.00;98059.41;5133784;27;20034;-72
2023/09/29 05:55:23;;;;;;;27.20;8.20;;;;;;;14.19;100.00;98046.59;5151940;27;20027;-73
2023/09/29 05:57:52;;;;;;;25.77;9.27;;;;;;;14.77;100.00;98061.44;5150615;27;20057;-72
2023/09/29 06:00:18;;;;;;;28.33;9.45;;;;;;;15.77;100.00;98048.72;5150668;27;20023;-73
2023/09/29 06:02:47;;;;;;;23.33;8.43;;;;;;;16.90;100.00;98048.00;5136089;27;20402;-74
2023/09/29 06:05:13;;;;;;;30.70;8.00;;;;;;;17.60;100.00;98037.75;5112785;27;20031;-73
2023/09/29 06:07:39;;;;;;;20.85;8.88;;;;;;;17.93;100.00;98046.78;5144224;27;20027;-74
2023/09/29 06:10:06;;;;;;;16.25;8.10;;;;;;;17.88;100.00;98036.34;5148697;27;20420;-74
2023/09/29 06:12:32;;;;;;;14.90;6.40;;;;;;;17.86;100.00;98041.91;5150536;27;20023;-73
2023/09/29 06:14:57;;;;;;;25.92;7.55;;;;;;;17.85;100.00;98042.88;5150375;27;20492;-73
2023/09/29 06:17:23;;;;;;;15.18;6.47;;;;;;;17.81;100.00;98041.41;5151604;27;20159;-74
2023/09/29 06:19:49;;;;;;;13.02;6.03;;;;;;;17.50;100.00;98047.63;5131317;27;20086;-74
2023/09/29 06:22:15;;;;;;;15.65;5.97;;;;;;;17.87;100.00;98043.59;5148266;27;20026;-74
2023/09/29 06:24:42;;;;;;;26.90;6.75;;;;;;;18.19;100.00;98048.16;5150556;27;20519;-73
2023/09/29 06:27:07;;;;;;;21.92;6.75;;;;;;;18.31;100.00;98034.44;5132845;27;20063;-74
2023/09/29 06:29:33;;;;;;;25.08;7.82;;;;;;;18.10;100.00;98041.66;5151841;27;20026;-72
2023/09/29 06:31:58;;;;;;;23.63;8.77;;;;;;;17.96;100.00;98047.41;5135778;27;20535;-74
2023/09/29 06:34:24;;;;;;;30.77;8.15;;;;;;;18.28;100.00;98040.09;5130918;27;20031;-74
2023/09/29 06:36:49;;;;;;;25.70;8.80;;;;;;;18.28;100.00;98040.09;5148037;27;20101;-74
2023/09/29 06:39:15;;;;;;;22.80;8.07;;;;;;;17.93;100.00;98044.09;5151607;27;20026;-74
2023/09/29 06:41:41;;;;;;;26.73;11.73;;;;;;;18.02;100.00;98046.03;5149994;27;20059;-73
2023/09/29 06:44:06;;;;;;;32.85;10.45;;;;;;;18.04;100.00;98046.75;5150328;27;20030;-74
2023/09/29 06:46:32;;;;;;;26.08;9.05;;;;;;;18.08;100.00;98042.78;5135068;27;20598;-73
2023/09/29 06:48:58;;;;;;;20.45;8.90;;;;;;;18.07;100.00;98046.47;5153856;27;20027;-74
2023/09/29 06:51:24;;;;;;;24.08;9.05;;;;;;;18.21;100.00;98047.03;5154528;27;20026;-74
2023/09/29 06:53:49;;;;;;;18.60;7.97;;;;;;;18.02;100.00;98055.00;5153998;27;20041;-74
2023/09/29 06:56:15;;;;;;;17.25;7.63;;;;;;;18.27;100.00;98043.78;5139338;27;20026;-74
2023/09/29 06:58:40;;;;;;;22.17;7.43;;;;;;;18.29;100.00;98046.38;5134090;27;20118;-73
2023/09/29 07:01:06;;;;;;;21.92;8.55;;;;;;;18.73;100.00;98053.44;5153362;27;20496;-73
2023/09/29 07:03:32;;;;;;;20.55;8.38;;;;;;;18.75;100.00;98044.19;5155579;27;20101;-73
2023/09/29 07:06:01;;;;;;;27.60;8.43;;;;;;;18.87;100.00;98048.53;5153686;27;20102;-73
2023/09/29 07:08:27;;;;;;;28.98;8.82;;;;;;;18.77;100.00;98053.03;5146611;27;20039;-73
2023/09/29 07:10:53;;;;;;;27.38;9.85;;;;;;;18.95;100.00;98058.69;5115814;27;20527;-75
2023/09/29 07:13:19;;;;;;;25.67;8.48;;;;;;;19.26;100.00;98048.69;5153105;27;20495;-75
2023/09/29 07:15:47;;;;;;;31.00;8.75;;;;;;;19.54;100.00;98042.56;5153514;27;20031;-75
2023/09/29 07:18:13;;;;;;;18.00;8.43;;;;;;;19.30;100.00;98050.16;5136557;27;20099;-74
2023/09/29 07:20:44;;;;;;;23.00;8.50;;;;;;;19.36;100.00;98053.19;5154572;27;20078;-75
2023/09/29 07:23:10;;;;;;;19.10;8.30;;;;;;;19.14;100.00;98044.38;5153518;27;20025;-74
2023/09/29 07:25:39;;;;;;;24.00;9.05;;;;;;;19.46;100.00;98051.41;5136183;27;20035;-76
2023/09/29 07:28:13;;;;;;;21.45;7.25;;;;;;;19.60;100.00;98050.16;5153208;27;20027;-75
2023/09/29 07:30:41;;;;;;;18.13;7.45;;;;;;;19.29;100.00;98054.72;5145144;27;20027;-74
2023/09/29 07:33:06;;;;;;;20.27;7.35;;;;;;;19.60;100.00;98052.88;5132572;27;20496;-75
2023/09/29 07:35:32;;;;;;;17.70;7.00;;;;;;;19.34;100.00;98054.31;5133823;27;20026;-73
2023/09/29 07:37:59;;;;;;;19.55;7.80;;;;;;;19.60;100.00;98061.00;5133481;27;20041;-73
2023/09/29 07:40:24;;;;;;;30.02;7.25;;;;;;;20.22;100.00;98048.97;5133646;27;20047;-76
2023/09/29 07:42:51;;;;;;;17.85;7.85;;;;;;;19.63;100.00;98057.16;5133541;27;20430;-75
2023/09/29 07:45:18;;;;;;;12.60;6.50;;;;;;;19.74;100.00;98065.19;5148609;27;20025;-75
2023/09/29 07:47:43;;;;;;;17.50;6.20;;;;;;;20.24;100.00;98064.09;5153032;27;20014;-75
2023/09/29 07:50:09;;;;;;;18.80;7.10;;;;;;;20.27;100.00;98057.59;5152995;27;20143;-75
2023/09/29 07:52:37;;;;;;;20.83;6.22;;;;;;;20.68;100.00;98057.25;5152817;27;20027;-75
2023/09/29 07:55:05;;;;;;;16.42;6.93;;;;;;;21.36;100.00;98053.38;5154182;27;20474;-75
2023/09/29 07:57:30;;;;;;;13.65;6.68;;;;;;;21.16;100.00;98054.47;5134219;27;20026;-75
2023/09/29 07:59:56;;;;;;;16.25;6.63;;;;;;;21.92;100.00;98049.69;5154276;27;20030;-75
2023/09/29 08:02:21;;;;;;;19.50;6.82;;;;;;;22.72;99.98;98041.44;5152903;27;20465;-74
2023/09/29 08:04:47;;;;;;;15.90;6.65;;;;;;;23.57;91.18;98035.16;5149941;27;20045;-75
2023/09/29 08:07:13;;;;;;;13.95;6.45;;;;;;;23.85;88.94;98031.19;5132925;27;20118;-75
2023/09/29 08:09:39;;;;;;;27.25;6.38;;;;;;;24.75;80.76;98022.09;5150567;27;20124;-75
2023/09/29 08:12:04;;;;;;;14.10;6.60;;;;;;;25.06;75.42;98012.16;5152666;27;20026;-75
2023/09/29 08:14:31;;;;;;;25.67;6.78;;;;;;;25.62;73.36;98011.16;5152574;27;20037;-75
2023/09/29 08:16:57;;;;;;;15.65;6.13;;;;;;;26.44;65.65;98008.81;5153556;27;20102;-74
2023/09/29 08:19:22;;;;;;;23.15;7.07;;;;;;;25.90;69.16;98018.91;5152384;27;20046;-75
2023/09/29 08:21:49;;;;;;;18.02;7.13;;;;;;;25.42;71.32;98017.19;5153433;27;20031;-74
2023/09/29 08:24:15;;;;;;;26.17;7.22;;;;;;;25.27;73.71;98026.16;5153557;27;20033;-75
2023/09/29 08:26:41;;;;;;;15.18;6.32;;;;;;;25.58;72.58;98012.56;5152348;27;20023;-75
2023/09/29 08:29:09;;;;;;;18.05;7.03;;;;;;;25.69;70.97;98012.16;5152182;27;20030;-75
2023/09/29 08:31:35;;;;;;;15.48;7.38;;;;;;;25.20;74.61;98013.31;5152490;27;20027;-75
2023/09/29 08:34:01;;;;;;;16.88;6.35;;;;;;;25.93;72.81;98013.94;5152391;27;20026;-75
2023/09/29 08:36:26;;;;;;;20.30;6.78;;;;;;;26.63;64.80;98011.94;5134590;27;20043;-74
2023/09/29 08:38:52;;;;;;;20.00;6.68;;;;;;;25.94;69.35;98010.13;5153256;27;20127;-76
2023/09/29 08:41:23;;;;;;;16.58;6.63;;;;;;;25.72;70.59;98016.41;5151833;27;20113;-76
2023/09/29 08:43:49;;;;;;;21.55;6.82;;;;;;;25.03;71.73;98014.41;5152136;27;20026;-75
2023/09/29 08:46:15;;;;;;;14.73;6.20;;;;;;;24.49;77.94;98024.13;5151996;27;20031;-76
2023/09/29 08:48:43;;;;;;;17.90;6.07;;;;;;;24.77;74.71;98014.56;5152100;27;20023;-75
2023/09/29 08:51:09;;;;;;;18.15;5.32;;;;;;;25.57;72.57;98013.56;5151921;27;20029;-75
2023/09/29 08:53:35;;;;;;;21.63;6.38;;;;;;;27.37;61.37;98001.94;5151916;27;20038;-76
2023/09/29 08:56:05;;;;;;;18.02;5.97;;;;;;;28.64;54.63;97993.16;5151428;27;20019;-75
2023/09/29 08:58:32;;;;;;;13.60;5.72;;;;;;;30.04;48.88;97981.84;5151903;27;20505;-75
2023/09/29 09:00:58;;;;;;;15.10;5.30;;;;;;;31.49;45.08;97977.31;5149252;27;20026;-75
2023/09/29 09:03:24;;;;;;;21.50;5.93;;;;;;;30.61;44.62;97970.28;5151341;27;20080;-75
2023/09/29 09:05:50;;;;;;;21.33;4.18;;;;;;;30.80;43.99;97977.75;5134076;27;20525;-75
2023/09/29 09:08:16;;;;;;;19.88;4.38;;;;;;;30.99;42.51;97970.56;5150855;27;20474;-75
2023/09/29 09:10:43;;;;;;;26.02;3.92;;;;;;;30.72;43.17;97969.69;5151649;27;20027;-75
2023/09/29 09:13:08;;;;;;;13.90;4.07;;;;;;;30.68;41.72;97962.00;5111093;27;20031;-75
2023/09/29 09:15:34;;;;;;;8.43;3.33;;;;;;;29.63;41.68;97961.66;5147022;27;20094;-75
2023/09/29 09:18:00;;;;;;;11.30;3.88;;;;;;;31.05;39.70;97953.97;5151597;27;20109;-75
2023/09/29 09:20:26;;;;;;;9.55;4.13;;;;;;;31.63;38.60;97954.91;5133759;27;20105;-75
2023/09/29 09:23:11;;;;;;;7.38;3.10;;;;;;;31.84;37.88;97944.66;5147595;27;20030;-75
2023/09/29 09:25:41;;;;;;;12.68;3.38;;;;;;;32.29;37.35;97949.09;5139001;27;20029;-75
2023/09/29 09:28:15;;;;;;;11.05;3.70;;;;;;;30.61;38.92;97949.06;5151086;27;20071;-75
2023/09/29 09:30:41;;;;;;;7.75;3.28;;;;;;;31.88;37.90;97943.09;5133955;27;20019;-76
2023/09/29 09:33:16;;;;;;;15.95;3.05;;;;;;;32.12;37.61;97939.59;5150937;27;20136;-76
2023/09/29 09:35:42;;;;;;;6.65;3.03;;;;;;;31.99;37.70;97934.13;5128915;27;20022;-76
2023/09/29 09:38:08;;;;;;;5.03;3.15;;;;;;;34.21;34.35;97927.59;5130310;27;20054;-74
2023/09/29 09:40:34;;;;;;;8.73;3.15;;;;;;;35.27;32.90;97919.25;5124799;27;20500;-75
2023/09/29 09:43:03;;;;;;;9.15;3.53;;;;;;;35.50;32.75;97930.34;5131431;27;20402;-75
2023/09/29 09:45:39;;;;;;;8.30;3.40;;;;;;;35.12;32.37;97921.69;5133100;27;20434;-75
2023/09/29 09:48:09;;;;;;;15.00;3.72;;;;;;;35.87;32.00;97914.22;5150942;27;20030;-75
2023/09/29 09:50:38;;;;;;;12.48;3.25;;;;;;;36.91;29.83;97910.09;5151087;27;20084;-74
2023/09/29 09:53:07;;;;;;;10.13;3.17;;;;;;;36.37;30.50;97908.81;5152605;27;20564;-75
2023/09/29 09:55:37;;;;;;;7.85;3.25;;;;;;;37.20;30.03;97908.06;5151067;27;20022;-75
2023/09/29 09:58:16;;;;;;;9.02;3.53;;;;;;;36.16;30.60;97915.09;5118341;27;20038;-76
2023/09/29 10:00:45;;;;;;;8.45;3.38;;;;;;;34.35;32.21;97919.91;5131686;27;20034;-75
2023/09/29 10:03:11;;;;;;;11.13;3.40;;;;;;;33.73;33.20;97911.78;5152107;27;20030;-74
2023/09/29 10:05:40;;;;;;;13.00;3.72;;;;;;;35.47;30.69;97900.22;5150693;27;20083;-74
2023/09/29 10:08:06;;;;;;;13.07;3.63;;;;;;;34.84;30.45;97898.19;5150587;27;20079;-74
2023/09/29 10:10:39;;;;;;;9.60;3.38;;;;;;;34.31;31.65;97908.41;5150323;27;20031;-74
2023/09/29 10:13:07;;;;;;;9.05;3.47;;;;;;;35.12;30.94;97905.00;5150681;27;20430;-74
2023/09/29 10:15:35;;;;;;;14.90;3.65;;;;;;;34.72;30.64;97894.53;5151810;27;20056;-74
2023/09/29 10:18:03;;;;;;;9.13;3.90;;;;;;;33.59;31.85;97893.59;5151675;27;20443;-74
2023/09/29 10:20:33;;;;;;;6.50;3.45;;;;;;;32.71;32.73;97890.19;5151080;27;20049;-75
2023/09/29 10:23:06;;;;;;;10.10;3.92;;;;;;;32.85;32.92;97895.63;5137195;27;20144;-75
2023/09/29 10:25:52;;;;;;;11.88;5.32;;;;;;;33.60;32.00;97889.72;5137188;27;20027;-74
2023/09/29 10:28:18;;;;;;;8.25;3.53;;;;;;;32.24;32.55;97881.63;5148175;27;20030;-74
2023/09/29 10:30:44;;;;;;;12.77;3.40;;;;;;;31.17;33.64;97887.81;5154582;27;20029;-75
2023/09/29 10:33:13;;;;;;;10.88;3.55;;;;;;;29.82;35.60;97884.56;5155737;27;20022;-74
2023/09/29 10:35:46;;;;;;;8.23;3.42;;;;;;;30.99;34.54;97882.09;5154380;27;20031;-74
2023/09/29 10:38:29;;;;;;;9.48;3.60;;;;;;;32.28;32.74;97867.06;5148681;27;20474;-78
2023/09/29 10:40:57;;;;;;;17.42;3.92;;;;;;;32.48;32.66;97866.94;5147459;27;20018;-77
2023/09/29 10:43:23;;;;;;;11.43;3.65;;;;;;;32.89;31.96;97867.22;5120424;27;20486;-77
2023/09/29 10:45:50;;;;;;;17.45;4.05;;;;;;;33.72;30.42;97854.53;5134787;27;20102;-76
2023/09/29 10:48:21;;;;;;;10.45;4.50;;;;;;;33.93;30.02;97846.81;5142546;27;20015;-75
2023/09/29 10:50:49;;;;;;;6.28;3.45;;;;;;;34.35;29.03;97840.19;5134803;27;20026;-74
2023/09/29 10:53:16;;;;;;;8.80;4.30;;;;;;;34.07;30.15;97840.81;5134890;27;20030;-75
2023/09/29 10:55:49;;;;;;;10.05;3.90;;;;;;;32.70;30.61;97838.59;5152746;27;20046;-75
2023/09/29 10:58:17;;;;;;;5.72;3.55;;;;;;;33.67;30.12;97823.03;5154137;27;20478;-75
2023/09/29 11:00:51;;;;;;;7.57;3.60;;;;;;;34.07;29.00;97826.06;5152814;27;20398;-74
2023/09/29 11:03:18;;;;;;;17.05;3.85;;;;;;;34.00;30.28;97822.53;5149077;27;20110;-75
2023/09/29 11:05:50;;;;;;;12.35;3.30;;;;;;;31.52;31.96;97816.44;5153776;27;20042;-75
2023/09/29 11:08:20;;;;;;;9.73;3.85;;;;;;;33.02;30.59;97824.63;5155171;27;20038;-74
2023/09/29 11:10:57;;;;;;;14.10;4.05;;;;;;;34.02;30.01;97815.69;5153494;27;20446;-73
2023/09/29 11:13:23;;;;;;;12.32;3.60;;;;;;;34.09;29.64;97813.63;5154059;27;20386;-73
2023/09/29 11:15:49;;;;;;;9.18;3.47;;;;;;;33.65;29.78;97806.63;5144888;27;20080;-73
2023/09/29 11:18:25;;;;;;;7.63;3.15;;;;;;;33.95;28.81;97805.75;5155363;27;20031;-72